Time;durP1;ratioP1;P1;durP2;ratioP2;P2;SDS_P1;SDS_P2;PMS_P1;PMS_P2;Temp;Humidity;BMP_temperature;BMP_pressure;BME280_temperature;BME280_humidity;BME280_pressure;Samples;Min_cycle;Max_cycle;Signal;HPM_P1;HPM_P2
2022/09/29 00:02:20;;;;;;;;;;;9.60;99.90;;;;;;4997233;28;19964;-62
2022/09/29 00:04:48;;;;;;;;;;;9.60;99.90;;;;;;4998614;28;19994;-62
2022/09/29 00:07:17;;;;;;;;;;;9.40;99.90;;;;;;5006176;28;19967;-62
2022/09/29 00:09:45;;;;;;;;;;;9.30;99.90;;;;;;4988193;28;19968;-62
2022/09/29 00:12:13;;;;;;;;;;;9.40;99.90;;;;;;5000260;28;20472;-63
2022/09/29 00:14:40;;;;;;;;;;;9.30;99.90;;;;;;4993966;28;19970;-62
2022/09/29 00:17:14;;;;;;;;;;;9.40;99.90;;;;;;5001774;28;20006;-63
2022/09/29 00:19:42;;;;;;;;;;;9.40;99.90;;;;;;5004307;28;19971;-61
2022/09/29 00:22:10;;;;;;;;;;;9.40;99.90;;;;;;5006156;28;19968;-62
2022/09/29 00:24:39;;;;;;;;;;;9.40;99.90;;;;;;4992983;28;19971;-61
2022/09/29 00:27:07;;;;;;;;;;;9.40;99.90;;;;;;5003072;28;20343;-63
2022/09/29 00:29:34;;;;;;;;;;;9.50;99.90;;;;;;4992186;28;19974;-61
2022/09/29 00:32:02;;;;;;;;;;;9.50;99.90;;;;;;4992118;28;20340;-62
2022/09/29 00:34:30;;;;;;;;;;;9.50;99.90;;;;;;5002125;28;19991;-62
2022/09/29 00:36:58;;;;;;;;;;;9.50;99.90;;;;;;5002124;28;19967;-62
2022/09/29 00:39:25;;;;;;;;;;;9.60;99.90;;;;;;5001733;28;19973;-61
2022/09/29 00:41:56;;;;;;;;;;;9.60;99.90;;;;;;4998572;28;20444;-62
2022/09/29 00:44:42;;;;;;;;;;;9.70;99.90;;;;;;4992135;28;19968;-62
2022/09/29 00:47:11;;;;;;;;;;;9.60;99.90;;;;;;4993795;28;19978;-63
2022/09/29 00:49:43;;;;;;;;;;;9.60;99.90;;;;;;4992344;28;19967;-62
2022/09/29 00:52:12;;;;;;;;;;;9.60;99.90;;;;;;4999579;28;19967;-62
2022/09/29 00:54:42;;;;;;;;;;;9.60;99.90;;;;;;4991395;28;19968;-62
2022/09/29 00:57:12;;;;;;;;;;;9.60;99.90;;;;;;5002017;28;19978;-63
2022/09/29 00:59:42;;;;;;;;;;;9.60;99.90;;;;;;4987143;28;20058;-62
2022/09/29 01:02:09;;;;;;;;;;;9.50;99.90;;;;;;5002141;28;19971;-62
2022/09/29 01:04:37;;;;;;;;;;;9.50;99.90;;;;;;4999230;28;19989;-62
2022/09/29 01:07:05;;;;;;;;;;;9.50;99.90;;;;;;4998650;28;20440;-62
2022/09/29 01:09:34;;;;;;;;;;;9.50;99.90;;;;;;4999045;28;19971;-61
2022/09/29 01:12:02;;;;;;;;;;;9.40;99.90;;;;;;4998725;28;19975;-62
2022/09/29 01:14:32;;;;;;;;;;;9.40;99.90;;;;;;5001602;28;19979;-62
2022/09/29 01:17:00;;;;;;;;;;;9.50;99.90;;;;;;5001718;28;19971;-62
2022/09/29 01:19:32;;;;;;;;;;;9.30;99.90;;;;;;4999069;28;20062;-62
2022/09/29 01:22:04;;;;;;;;;;;9.20;99.90;;;;;;4998870;28;20063;-62
2022/09/29 01:24:50;;;;;;;;;;;9.20;99.90;;;;;;4999143;28;19978;-65
2022/09/29 01:27:40;;;;;;;;;;;9.20;99.90;;;;;;4998102;28;19964;-66
2022/09/29 01:30:13;;;;;;;;;;;9.20;99.90;;;;;;4998831;28;19989;-64
2022/09/29 01:32:52;;;;;;;;;;;9.10;99.90;;;;;;4994410;28;19974;-64
2022/09/29 01:35:22;;;;;;;;;;;9.20;99.90;;;;;;4997208;28;19986;-62
2022/09/29 01:37:55;;;;;;;;;;;9.30;99.90;;;;;;5004838;28;20371;-63
2022/09/29 01:40:26;;;;;;;;;;;9.30;99.90;;;;;;4990184;28;19979;-61
2022/09/29 01:42:55;;;;;;;;;;;9.20;99.90;;;;;;4999551;28;19968;-63
2022/09/29 01:45:26;;;;;;;;;;;9.30;99.90;;;;;;5000509;28;19975;-62
2022/09/29 01:47:57;;;;;;;;;;;9.20;99.90;;;;;;4998312;28;20460;-63
2022/09/29 01:50:28;;;;;;;;;;;9.20;99.90;;;;;;4999760;28;19968;-62
2022/09/29 01:52:58;;;;;;;;;;;9.20;99.90;;;;;;5069203;28;19968;-63
2022/09/29 01:55:28;;;;;;;;;;;9.20;99.90;;;;;;4996333;28;19996;-62
2022/09/29 01:57:58;;;;;;;;;;;9.10;99.90;;;;;;5001312;28;20058;-62
2022/09/29 02:00:30;;;;;;;;;;;9.10;99.90;;;;;;4995994;28;19964;-62
2022/09/29 02:03:05;;;;;;;;;;;9.10;99.90;;;;;;5001710;28;20037;-62
2022/09/29 02:05:36;;;;;;;;;;;9.00;99.90;;;;;;4994197;28;19968;-62
2022/09/29 02:08:07;;;;;;;;;;;9.00;99.90;;;;;;4997822;28;19967;-62
2022/09/29 02:10:37;;;;;;;;;;;9.10;99.90;;;;;;5002559;28;19967;-63
2022/09/29 02:13:06;;;;;;;;;;;9.10;99.90;;;;;;4999247;28;20395;-62
2022/09/29 02:15:35;;;;;;;;;;;9.10;99.90;;;;;;4993297;28;19967;-62
2022/09/29 02:18:08;;;;;;;;;;;9.00;99.90;;;;;;5000807;28;20066;-62
2022/09/29 02:20:36;;;;;;;;;;;8.90;99.90;;;;;;4992159;28;19963;-62
2022/09/29 02:23:04;;;;;;;;;;;8.90;99.90;;;;;;5001589;28;20062;-63
2022/09/29 02:25:34;;;;;;;;;;;8.90;99.90;;;;;;4991050;28;20062;-65
2022/09/29 02:28:02;;;;;;;;;;;8.90;99.90;;;;;;5005343;28;19990;-65
2022/09/29 02:30:30;;;;;;;;;;;8.80;99.90;;;;;;5004213;28;19964;-65
2022/09/29 02:32:58;;;;;;;;;;;8.80;99.90;;;;;;4997008;28;19968;-64
2022/09/29 02:35:29;;;;;;;;;;;8.90;99.90;;;;;;4998947;28;20631;-64
2022/09/29 02:38:02;;;;;;;;;;;8.90;99.90;;;;;;5000155;28;19968;-64
2022/09/29 02:40:37;;;;;;;;;;;8.90;99.90;;;;;;4996255;28;20007;-63
2022/09/29 02:43:12;;;;;;;;;;;8.90;99.90;;;;;;4998332;28;19991;-64
2022/09/29 02:45:45;;;;;;;;;;;8.90;99.90;;;;;;4974734;28;20437;-64
2022/09/29 02:48:21;;;;;;;;;;;8.90;99.90;;;;;;4998312;28;19968;-64
2022/09/29 02:50:53;;;;;;;;;;;9.00;99.90;;;;;;5000886;28;19990;-64
2022/09/29 02:53:24;;;;;;;;;;;8.90;99.90;;;;;;4998820;28;20407;-65
2022/09/29 02:55:57;;;;;;;;;;;8.90;99.90;;;;;;4996804;28;20343;-64
2022/09/29 02:58:29;;;;;;;;;;;9.00;99.90;;;;;;4998971;28;20507;-65
2022/09/29 03:00:58;;;;;;;;;;;8.90;99.90;;;;;;5007903;28;19974;-65
2022/09/29 03:03:25;;;;;;;;;;;9.00;99.90;;;;;;4999489;28;19966;-65
2022/09/29 03:05:55;;;;;;;;;;;8.90;99.90;;;;;;4996998;28;19964;-65
2022/09/29 03:08:22;;;;;;;;;;;9.00;99.90;;;;;;4998201;28;19986;-64
2022/09/29 03:10:50;;;;;;;;;;;9.00;99.90;;;;;;4997032;28;19963;-64
2022/09/29 03:13:18;;;;;;;;;;;9.00;99.90;;;;;;5000523;28;19973;-65
2022/09/29 03:15:45;;;;;;;;;;;9.10;99.90;;;;;;4990145;28;19968;-65
2022/09/29 03:18:13;;;;;;;;;;;9.10;99.90;;;;;;4997432;28;19994;-64
2022/09/29 03:20:41;;;;;;;;;;;9.10;99.90;;;;;;4996596;28;19964;-65
2022/09/29 03:23:10;;;;;;;;;;;9.00;99.90;;;;;;4996703;28;19964;-65
2022/09/29 03:25:38;;;;;;;;;;;9.00;99.90;;;;;;4988204;28;19963;-63
2022/09/29 03:28:05;;;;;;;;;;;9.00;99.90;;;;;;5001717;28;19974;-64
2022/09/29 03:30:34;;;;;;;;;;;8.90;99.90;;;;;;5008977;28;19977;-65
2022/09/29 03:33:01;;;;;;;;;;;8.90;99.90;;;;;;4987303;28;19991;-65
2022/09/29 03:35:29;;;;;;;;;;;8.90;99.90;;;;;;4989093;28;19968;-64
2022/09/29 03:37:59;;;;;;;;;;;8.90;99.90;;;;;;4990591;28;19968;-65
2022/09/29 03:40:28;;;;;;;;;;;8.90;99.90;;;;;;4971189;28;19975;-64
2022/09/29 03:42:56;;;;;;;;;;;9.00;99.90;;;;;;4970229;28;20343;-64
2022/09/29 03:45:24;;;;;;;;;;;9.00;99.90;;;;;;4989075;28;19968;-65
2022/09/29 03:47:51;;;;;;;;;;;8.90;99.90;;;;;;4990996;28;19974;-64
2022/09/29 03:50:19;;;;;;;;;;;8.90;99.90;;;;;;4992688;28;19972;-66
2022/09/29 03:52:47;;;;;;;;;;;8.90;99.90;;;;;;4993958;28;19975;-66
2022/09/29 03:55:15;;;;;;;;;;;8.90;99.90;;;;;;4988343;28;19975;-66
2022/09/29 03:57:45;;;;;;;;;;;8.70;99.90;;;;;;4992621;28;21029;-66
2022/09/29 04:00:13;;;;;;;;;;;8.70;99.90;;;;;;4989339;28;19976;-66
2022/09/29 04:02:41;;;;;;;;;;;8.50;99.90;;;;;;4987937;28;20576;-66
2022/09/29 04:05:09;;;;;;;;;;;8.40;99.90;;;;;;4991177;28;19984;-66
2022/09/29 04:07:36;;;;;;;;;;;8.30;99.90;;;;;;4990874;28;19973;-66
2022/09/29 04:10:05;;;;;;;;;;;8.20;99.90;;;;;;4994345;28;19976;-66
2022/09/29 04:12:32;;;;;;;;;;;8.10;99.90;;;;;;4987237;28;19967;-66
2022/09/29 04:15:01;;;;;;;;;;;8.00;99.90;;;;;;4989641;28;20444;-65
2022/09/29 04:17:29;;;;;;;;;;;8.00;99.90;;;;;;4990488;28;19972;-66
2022/09/29 04:19:57;;;;;;;;;;;7.90;99.90;;;;;;4989704;28;19974;-65
2022/09/29 04:22:25;;;;;;;;;;;7.90;99.90;;;;;;4987326;28;19974;-66
2022/09/29 04:24:52;;;;;;;;;;;7.90;99.90;;;;;;4995571;28;19964;-66
2022/09/29 04:27:20;;;;;;;;;;;7.80;99.90;;;;;;4995467;28;19967;-66
2022/09/29 04:29:48;;;;;;;;;;;7.90;99.90;;;;;;4992153;28;19986;-66
2022/09/29 04:32:17;;;;;;;;;;;7.90;99.90;;;;;;4994836;28;20441;-66
2022/09/29 04:34:45;;;;;;;;;;;7.90;99.90;;;;;;4990860;28;20366;-66
2022/09/29 04:37:12;;;;;;;;;;;7.90;99.90;;;;;;4993000;28;19976;-66
2022/09/29 04:39:40;;;;;;;;;;;7.80;99.90;;;;;;4987223;28;19971;-66
2022/09/29 04:42:08;;;;;;;;;;;7.80;99.90;;;;;;4988429;28;19982;-66
2022/09/29 04:44:36;;;;;;;;;;;7.80;99.90;;;;;;4988418;28;19979;-66
2022/09/29 04:47:03;;;;;;;;;;;7.70;99.90;;;;;;4992390;28;20066;-65
2022/09/29 04:49:33;;;;;;;;;;;7.60;99.90;;;;;;4992674;28;20470;-66
2022/09/29 04:52:00;;;;;;;;;;;7.70;99.90;;;;;;4989165;28;19987;-66
2022/09/29 04:54:30;;;;;;;;;;;7.60;99.90;;;;;;4987642;28;19975;-63
2022/09/29 04:57:04;;;;;;;;;;;7.60;99.90;;;;;;4992384;28;19982;-63
2022/09/29 04:59:32;;;;;;;;;;;7.50;99.90;;;;;;4991488;28;19984;-63
2022/09/29 05:02:00;;;;;;;;;;;7.50;99.90;;;;;;4986945;28;19982;-63
2022/09/29 05:04:27;;;;;;;;;;;7.50;99.90;;;;;;4987572;28;20003;-63
2022/09/29 05:06:56;;;;;;;;;;;7.50;99.90;;;;;;4990326;28;19974;-64
2022/09/29 05:09:24;;;;;;;;;;;7.60;99.90;;;;;;4990964;28;19971;-64
2022/09/29 05:11:56;;;;;;;;;;;7.60;99.90;;;;;;4984770;28;20435;-64
2022/09/29 05:14:24;;;;;;;;;;;7.50;99.90;;;;;;4993092;28;19968;-63
2022/09/29 05:16:54;;;;;;;;;;;7.60;99.90;;;;;;4992337;28;19967;-63
2022/09/29 05:19:21;;;;;;;;;;;7.50;99.90;;;;;;4994324;28;19968;-63
2022/09/29 05:21:49;;;;;;;;;;;7.50;99.90;;;;;;4988181;28;19968;-66
2022/09/29 05:24:18;;;;;;;;;;;7.60;99.90;;;;;;4992231;28;19979;-65
2022/09/29 05:26:46;;;;;;;;;;;7.60;99.90;;;;;;4988902;28;20596;-66
2022/09/29 05:29:14;;;;;;;;;;;7.60;99.90;;;;;;4994996;28;19976;-65
2022/09/29 05:31:42;;;;;;;;;;;7.60;99.90;;;;;;4987130;28;19972;-66
2022/09/29 05:34:10;;;;;;;;;;;7.60;99.90;;;;;;4989829;28;19976;-66
2022/09/29 05:36:38;;;;;;;;;;;7.50;99.90;;;;;;4990257;28;19978;-66
2022/09/29 05:39:06;;;;;;;;;;;7.40;99.90;;;;;;4994551;28;19986;-66
2022/09/29 05:41:35;;;;;;;;;;;7.40;99.90;;;;;;4992133;28;19971;-65
2022/09/29 05:44:03;;;;;;;;;;;7.30;99.90;;;;;;4987772;28;19975;-66
2022/09/29 05:46:30;;;;;;;;;;;7.30;99.90;;;;;;4990234;28;19976;-66
2022/09/29 05:48:58;;;;;;;;;;;7.30;99.90;;;;;;4988464;28;19975;-66
2022/09/29 05:51:26;;;;;;;;;;;7.30;99.90;;;;;;4989861;28;20012;-66
2022/09/29 05:53:55;;;;;;;;;;;7.30;99.90;;;;;;4989764;28;19971;-66
2022/09/29 05:56:23;;;;;;;;;;;7.30;99.90;;;;;;4991125;28;19994;-66
2022/09/29 05:58:52;;;;;;;;;;;7.30;99.90;;;;;;4990367;28;19971;-64
2022/09/29 06:01:21;;;;;;;;;;;7.40;99.90;;;;;;4998788;28;20486;-65
2022/09/29 06:03:49;;;;;;;;;;;7.70;99.90;;;;;;4996896;28;19975;-65
2022/09/29 06:06:19;;;;;;;;;;;7.70;99.90;;;;;;5007197;28;19978;-65
2022/09/29 06:08:47;;;;;;;;;;;7.60;99.90;;;;;;5001703;28;19975;-66
2022/09/29 06:11:16;;;;;;;;;;;7.50;99.90;;;;;;4999316;28;19970;-65
2022/09/29 06:13:44;;;;;;;;;;;7.50;99.90;;;;;;4997937;28;20019;-65
2022/09/29 06:16:14;;;;;;;;;;;7.50;99.90;;;;;;4996621;28;20441;-66
2022/09/29 06:18:42;;;;;;;;;;;7.50;99.90;;;;;;5001981;28;20436;-65
2022/09/29 06:21:11;;;;;;;;;;;7.50;99.90;;;;;;5006876;28;19974;-65
2022/09/29 06:23:38;;;;;;;;;;;7.50;99.90;;;;;;4994546;28;19971;-65
2022/09/29 06:26:08;;;;;;;;;;;7.40;99.90;;;;;;4998972;28;19968;-64
2022/09/29 06:28:35;;;;;;;;;;;7.50;99.90;;;;;;5001851;28;19970;-65
2022/09/29 06:31:04;;;;;;;;;;;7.50;99.90;;;;;;5000888;28;20340;-66
2022/09/29 06:33:35;;;;;;;;;;;7.70;99.90;;;;;;4992509;28;19964;-65
2022/09/29 06:38:50;;;;;;;;;;;7.80;99.90;;;;;;4990645;28;20354;-65
2022/09/29 06:41:18;;;;;;;;;;;7.90;99.90;;;;;;4990290;28;19974;-65
2022/09/29 06:43:46;;;;;;;;;;;8.00;99.90;;;;;;4990461;28;20066;-65
2022/09/29 06:46:13;;;;;;;;;;;8.10;99.90;;;;;;4989653;28;19968;-66
2022/09/29 06:48:43;;;;;;;;;;;8.20;99.90;;;;;;4990293;28;19999;-65
2022/09/29 06:51:10;;;;;;;;;;;8.30;99.90;;;;;;4990067;28;20524;-63
2022/09/29 06:53:38;;;;;;;;;;;8.40;99.90;;;;;;4990227;28;19968;-63
2022/09/29 06:56:07;;;;;;;;;;;8.50;99.90;;;;;;4989424;28;20025;-63
2022/09/29 06:58:35;;;;;;;;;;;8.60;99.90;;;;;;4989685;28;20528;-63
2022/09/29 07:01:04;;;;;;;;;;;8.60;99.90;;;;;;4989805;28;19972;-63
2022/09/29 07:03:32;;;;;;;;;;;8.70;99.90;;;;;;4990473;28;20383;-63
2022/09/29 07:06:03;;;;;;;;;;;8.70;99.90;;;;;;4989577;28;19968;-63
2022/09/29 07:08:47;;;;;;;;;;;8.80;99.90;;;;;;4989527;28;19967;-63
2022/09/29 07:11:15;;;;;;;;;;;8.80;99.90;;;;;;4989710;28;19971;-63
2022/09/29 07:13:43;;;;;;;;;;;8.90;99.90;;;;;;4990216;28;19975;-63
2022/09/29 07:16:12;;;;;;;;;;;8.90;99.90;;;;;;4989117;28;19968;-63
2022/09/29 07:18:41;;;;;;;;;;;8.90;99.90;;;;;;4990025;28;20017;-63
2022/09/29 07:21:11;;;;;;;;;;;9.00;99.90;;;;;;4989259;28;20007;-63
2022/09/29 07:23:41;;;;;;;;;;;9.10;99.90;;;;;;4989712;28;19974;-63
2022/09/29 07:26:08;;;;;;;;;;;9.10;99.90;;;;;;4988694;28;19978;-63
2022/09/29 07:28:36;;;;;;;;;;;9.20;99.90;;;;;;4989712;28;20358;-62
2022/09/29 07:31:05;;;;;;;;;;;9.30;99.90;;;;;;4988994;28;19968;-63
2022/09/29 07:33:41;;;;;;;;;;;9.40;99.90;;;;;;4989792;28;19968;-63
2022/09/29 07:36:11;;;;;;;;;;;9.40;99.90;;;;;;4988353;28;19982;-63
2022/09/29 07:38:38;;;;;;;;;;;9.40;99.90;;;;;;4989981;28;19972;-63
2022/09/29 07:41:08;;;;;;;;;;;9.50;99.90;;;;;;4989223;28;20062;-63
2022/09/29 07:43:35;;;;;;;;;;;9.50;99.90;;;;;;4989575;28;19972;-63
2022/09/29 07:46:03;;;;;;;;;;;9.60;99.90;;;;;;4988704;28;20432;-63
2022/09/29 07:48:31;;;;;;;;;;;9.60;99.90;;;;;;4989450;28;19972;-63
2022/09/29 07:51:02;;;;;;;;;;;9.70;99.90;;;;;;4989529;28;19979;-63
2022/09/29 07:53:32;;;;;;;;;;;9.70;99.90;;;;;;4989483;28;20337;-63
2022/09/29 07:56:02;;;;;;;;;;;9.80;99.90;;;;;;4989220;28;19974;-63
2022/09/29 07:58:31;;;;;;;;;;;9.90;99.90;;;;;;4989420;28;19971;-63
2022/09/29 08:00:59;;;;;;;;;;;10.00;99.90;;;;;;4989132;28;20070;-63
2022/09/29 08:03:28;;;;;;;;;;;10.10;99.90;;;;;;4989450;28;19972;-63
2022/09/29 08:05:58;;;;;;;;;;;10.20;99.90;;;;;;4989266;28;20332;-63
2022/09/29 08:08:26;;;;;;;;;;;10.30;99.90;;;;;;4989417;28;19998;-65
2022/09/29 08:11:02;;;;;;;;;;;10.50;99.90;;;;;;4988605;28;19975;-66
2022/09/29 08:13:31;;;;;;;;;;;10.50;99.90;;;;;;4989318;28;19968;-66
2022/09/29 08:15:59;;;;;;;;;;;10.50;99.90;;;;;;4988488;28;19968;-66
2022/09/29 08:18:27;;;;;;;;;;;10.50;99.90;;;;;;4989203;28;19974;-66
2022/09/29 08:20:54;;;;;;;;;;;10.50;99.90;;;;;;4988808;28;19974;-66
2022/09/29 08:23:28;;;;;;;;;;;10.60;99.90;;;;;;4989089;28;20444;-66
2022/09/29 08:25:59;;;;;;;;;;;10.60;99.90;;;;;;4987959;28;20046;-66
2022/09/29 08:28:30;;;;;;;;;;;10.60;99.90;;;;;;4989105;28;20010;-66
2022/09/29 08:31:01;;;;;;;;;;;10.70;99.90;;;;;;4988942;28;19975;-66
2022/09/29 08:33:32;;;;;;;;;;;10.70;99.90;;;;;;4989013;28;20244;-66
2022/09/29 08:36:00;;;;;;;;;;;10.60;99.90;;;;;;4988201;28;20086;-66
2022/09/29 08:38:28;;;;;;;;;;;10.70;99.90;;;;;;4990527;28;20451;-66
2022/09/29 08:40:56;;;;;;;;;;;10.70;99.90;;;;;;4991989;28;19978;-66
2022/09/29 08:43:26;;;;;;;;;;;10.80;99.90;;;;;;4992284;28;19990;-66
2022/09/29 08:46:05;;;;;;;;;;;10.80;99.90;;;;;;4992067;28;19972;-66
2022/09/29 08:48:36;;;;;;;;;;;10.80;99.90;;;;;;4992619;28;19968;-66
2022/09/29 08:51:21;;;;;;;;;;;10.60;99.90;;;;;;4991798;28;20071;-66
2022/09/29 08:54:06;;;;;;;;;;;10.60;99.90;;;;;;4992258;28;20058;-66
2022/09/29 08:56:34;;;;;;;;;;;10.70;99.90;;;;;;4991886;28;20474;-66
2022/09/29 08:59:02;;;;;;;;;;;10.70;99.90;;;;;;4992054;28;19978;-66
2022/09/29 09:01:34;;;;;;;;;;;10.70;99.90;;;;;;4991445;28;20445;-66
2022/09/29 09:04:11;;;;;;;;;;;10.70;99.90;;;;;;4991963;28;20482;-66
2022/09/29 09:06:46;;;;;;;;;;;10.70;99.90;;;;;;4991811;28;19975;-66
2022/09/29 09:09:33;;;;;;;;;;;10.70;99.90;;;;;;4990961;28;20003;-65
2022/09/29 09:12:09;;;;;;;;;;;10.60;99.90;;;;;;4991573;28;19969;-66
2022/09/29 09:14:44;;;;;;;;;;;10.40;99.90;;;;;;4991901;28;19974;-66
2022/09/29 09:17:18;;;;;;;;;;;10.40;99.90;;;;;;4991478;28;19968;-66
2022/09/29 09:19:55;;;;;;;;;;;10.50;99.90;;;;;;4991523;28;19968;-66
2022/09/29 09:22:23;;;;;;;;;;;10.40;99.90;;;;;;4991371;28;19968;-66
2022/09/29 09:24:55;;;;;;;;;;;10.40;99.90;;;;;;4991663;28;19975;-66
2022/09/29 09:27:25;;;;;;;;;;;10.50;99.90;;;;;;4991377;28;19993;-66
2022/09/29 09:29:59;;;;;;;;;;;10.60;99.90;;;;;;4991287;28;19968;-66
2022/09/29 09:32:30;;;;;;;;;;;10.70;99.90;;;;;;4990960;28;20440;-66
2022/09/29 09:34:59;;;;;;;;;;;10.70;99.90;;;;;;4991306;28;19972;-66
2022/09/29 09:37:45;;;;;;;;;;;10.70;99.90;;;;;;4991105;28;19991;-65
2022/09/29 09:40:17;;;;;;;;;;;10.70;99.90;;;;;;4995818;28;19974;-66
2022/09/29 09:42:48;;;;;;;;;;;10.70;99.90;;;;;;5070912;28;19970;-66
2022/09/29 09:45:22;;;;;;;;;;;10.70;99.90;;;;;;5073247;28;19973;-66
2022/09/29 09:47:56;;;;;;;;;;;10.70;99.90;;;;;;5073538;28;19967;-66
2022/09/29 09:50:24;;;;;;;;;;;10.90;99.90;;;;;;5072670;28;20045;-66
2022/09/29 09:52:53;;;;;;;;;;;10.90;99.90;;;;;;5073047;28;20439;-66
2022/09/29 09:55:23;;;;;;;;;;;11.00;99.90;;;;;;5072728;28;20001;-66
2022/09/29 09:58:04;;;;;;;;;;;11.10;99.90;;;;;;5073426;28;19977;-66
2022/09/29 10:00:35;;;;;;;;;;;11.10;99.90;;;;;;5072890;28;20458;-66
2022/09/29 10:03:06;;;;;;;;;;;11.10;99.90;;;;;;5073191;28;19977;-66
2022/09/29 10:05:37;;;;;;;;;;;11.30;99.90;;;;;;5072240;28;20065;-66
2022/09/29 10:08:06;;;;;;;;;;;11.40;99.90;;;;;;5073048;28;20003;-66
2022/09/29 10:10:34;;;;;;;;;;;11.60;99.90;;;;;;5072341;28;19967;-66
2022/09/29 10:13:03;;;;;;;;;;;11.60;99.90;;;;;;5072740;28;19993;-66
2022/09/29 10:15:33;;;;;;;;;;;11.80;99.90;;;;;;5072204;28;19966;-66
2022/09/29 10:18:04;;;;;;;;;;;12.10;99.90;;;;;;5073100;28;19971;-66
2022/09/29 10:20:34;;;;;;;;;;;12.50;99.90;;;;;;5072522;28;19972;-66
2022/09/29 10:23:24;;;;;;;;;;;12.60;99.90;;;;;;5072737;28;19967;-66
2022/09/29 10:25:54;;;;;;;;;;;12.70;99.90;;;;;;5072135;28;20069;-65
2022/09/29 10:28:23;;;;;;;;;;;12.70;99.90;;;;;;5072576;28;19971;-66
2022/09/29 10:30:52;;;;;;;;;;;12.80;99.90;;;;;;5072266;28;19966;-67
2022/09/29 10:33:22;;;;;;;;;;;12.80;99.90;;;;;;5072484;28;20330;-66
2022/09/29 10:36:02;;;;;;;;;;;12.90;99.90;;;;;;5072073;28;19966;-66
2022/09/29 10:38:31;;;;;;;;;;;12.90;99.90;;;;;;5072321;28;20466;-66
2022/09/29 10:41:00;;;;;;;;;;;12.90;99.90;;;;;;5071844;28;19966;-66
2022/09/29 10:43:32;;;;;;;;;;;13.00;99.90;;;;;;5072403;28;19966;-66
2022/09/29 10:46:00;;;;;;;;;;;13.10;99.90;;;;;;5072011;28;19965;-66
2022/09/29 10:48:28;;;;;;;;;;;13.10;99.90;;;;;;5072169;28;20356;-66
2022/09/29 10:50:58;;;;;;;;;;;13.30;99.90;;;;;;5071925;28;19997;-66
2022/09/29 10:53:32;;;;;;;;;;;13.50;99.90;;;;;;5072101;28;20439;-66
2022/09/29 10:56:04;;;;;;;;;;;13.60;99.90;;;;;;5072258;28;19966;-66
2022/09/29 10:58:33;;;;;;;;;;;13.60;99.90;;;;;;5072199;28;19971;-66
2022/09/29 11:01:21;;;;;;;;;;;13.80;99.90;;;;;;5071004;28;19977;-66
2022/09/29 11:03:50;;;;;;;;;;;14.00;99.90;;;;;;5072181;28;19967;-63
2022/09/29 11:06:26;;;;;;;;;;;14.20;99.90;;;;;;5071752;28;19973;-63
2022/09/29 11:08:54;;;;;;;;;;;14.60;99.90;;;;;;5071610;28;19966;-64
2022/09/29 11:11:24;;;;;;;;;;;14.90;99.90;;;;;;5071579;28;20444;-64
2022/09/29 11:13:52;;;;;;;;;;;15.20;99.90;;;;;;5072056;28;20354;-63
2022/09/29 11:16:24;;;;;;;;;;;15.30;99.90;;;;;;5071515;28;20423;-63
2022/09/29 11:18:53;;;;;;;;;;;15.50;99.90;;;;;;5071989;28;19966;-63
2022/09/29 11:21:39;;;;;;;;;;;15.60;99.90;;;;;;5071178;28;20057;-63
2022/09/29 11:24:11;;;;;;;;;;;15.60;99.90;;;;;;5071905;28;19970;-63
2022/09/29 11:26:41;;;;;;;;;;;15.70;99.90;;;;;;5072023;28;19974;-64
2022/09/29 11:29:18;;;;;;;;;;;15.70;99.90;;;;;;5071856;28;19974;-63
2022/09/29 11:31:55;;;;;;;;;;;15.60;99.90;;;;;;5071354;28;19970;-64
2022/09/29 11:34:34;;;;;;;;;;;15.60;99.90;;;;;;5072035;28;20321;-63
2022/09/29 11:37:06;;;;;;;;;;;15.60;99.90;;;;;;5071463;28;20354;-63
2022/09/29 11:39:49;;;;;;;;;;;15.70;99.90;;;;;;5071570;28;19970;-63
2022/09/29 11:42:23;;;;;;;;;;;15.70;99.90;;;;;;5071351;28;19970;-63
2022/09/29 11:44:58;;;;;;;;;;;15.70;99.90;;;;;;5071241;28;20128;-63
2022/09/29 11:47:39;;;;;;;;;;;16.00;99.90;;;;;;5071651;28;19967;-63
2022/09/29 11:50:21;;;;;;;;;;;15.90;99.90;;;;;;5071497;28;19973;-63
2022/09/29 11:52:55;;;;;;;;;;;15.70;99.90;;;;;;5071451;28;19981;-63
2022/09/29 11:55:31;;;;;;;;;;;15.70;99.90;;;;;;5071834;28;20064;-63
2022/09/29 11:58:07;;;;;;;;;;;15.90;99.90;;;;;;5071696;28;19997;-64
2022/09/29 12:00:43;;;;;;;;;;;16.10;99.90;;;;;;5071453;28;19973;-63
2022/09/29 12:03:21;;;;;;;;;;;16.20;99.90;;;;;;5071213;28;19966;-63
2022/09/29 12:06:06;;;;;;;;;;;16.40;99.90;;;;;;5070903;28;20038;-64
2022/09/29 12:08:46;;;;;;;;;;;16.70;99.90;;;;;;5071522;28;20537;-63
2022/09/29 12:11:20;;;;;;;;;;;17.00;99.90;;;;;;5070884;28;19966;-64
2022/09/29 12:14:13;;;;;;;;;;;17.10;99.90;;;;;;5075332;28;19971;-63
2022/09/29 12:16:44;;;;;;;;;;;17.20;99.90;;;;;;5075213;28;20074;-63
2022/09/29 12:19:14;;;;;;;;;;;17.30;99.90;;;;;;5074955;28;20424;-64
2022/09/29 12:21:43;;;;;;;;;;;17.70;99.90;;;;;;5074594;28;19970;-64
2022/09/29 12:24:14;;;;;;;;;;;17.80;99.90;;;;;;5075081;28;19966;-63
2022/09/29 12:26:44;;;;;;;;;;;17.70;99.90;;;;;;5074896;28;19978;-64
2022/09/29 12:29:17;;;;;;;;;;;17.70;99.90;;;;;;5074754;28;19971;-64
2022/09/29 12:31:48;;;;;;;;;;;17.90;99.90;;;;;;5074574;28;19967;-64
2022/09/29 12:34:18;;;;;;;;;;;18.20;99.90;;;;;;5074934;28;20482;-63
2022/09/29 12:36:52;;;;;;;;;;;18.50;99.90;;;;;;5074653;28;19973;-63
2022/09/29 12:39:27;;;;;;;;;;;18.50;99.90;;;;;;5074575;28;20001;-63
2022/09/29 12:42:01;;;;;;;;;;;18.60;99.90;;;;;;5074501;28;20427;-64
2022/09/29 12:44:31;;;;;;;;;;;18.70;99.90;;;;;;5074646;28;19971;-64
2022/09/29 12:47:01;;;;;;;;;;;18.80;99.90;;;;;;5074535;28;19994;-63
2022/09/29 12:49:33;;;;;;;;;;;18.70;99.90;;;;;;5074024;28;19970;-64
2022/09/29 12:52:02;;;;;;;;;;;18.70;99.90;;;;;;5074594;28;20065;-63
2022/09/29 12:54:32;;;;;;;;;;;19.10;99.90;;;;;;5074491;28;19974;-63
2022/09/29 12:57:03;;;;;;;;;;;19.00;99.90;;;;;;5073982;28;20000;-64
2022/09/29 12:59:36;;;;;;;;;;;18.70;99.90;;;;;;5074119;28;19966;-63
2022/09/29 13:02:08;;;;;;;;;;;18.40;99.90;;;;;;5074056;28;20458;-63
2022/09/29 13:04:49;;;;;;;;;;;18.30;99.90;;;;;;5074411;28;19981;-63
2022/09/29 13:07:23;;;;;;;;;;;18.00;99.90;;;;;;5074164;28;20006;-63
2022/09/29 13:09:56;;;;;;;;;;;17.80;99.90;;;;;;5073939;28;19988;-63
2022/09/29 13:12:33;;;;;;;;;;;17.80;99.90;;;;;;5074299;28;20346;-63
2022/09/29 13:15:08;;;;;;;;;;;17.80;99.90;;;;;;5073885;28;19966;-63
2022/09/29 13:17:45;;;;;;;;;;;17.70;99.90;;;;;;5073917;28;19973;-63
2022/09/29 13:20:27;;;;;;;;;;;17.60;99.90;;;;;;5073836;28;20466;-63
2022/09/29 13:23:03;;;;;;;;;;;17.30;99.90;;;;;;5073879;28;19973;-64
2022/09/29 13:25:33;;;;;;;;;;;17.10;99.90;;;;;;5073537;28;20454;-64
2022/09/29 13:28:03;;;;;;;;;;;16.90;99.90;;;;;;5073647;28;19978;-64
2022/09/29 13:30:34;;;;;;;;;;;16.90;99.90;;;;;;5073593;28;19967;-64
2022/09/29 13:33:08;;;;;;;;;;;16.70;99.90;;;;;;5073708;28;19973;-63
2022/09/29 13:35:38;;;;;;;;;;;16.60;99.90;;;;;;5073314;28;19966;-64
2022/09/29 13:38:07;;;;;;;;;;;16.50;99.90;;;;;;5073376;28;20021;-64
2022/09/29 13:40:35;;;;;;;;;;;16.40;99.90;;;;;;5073412;28;19971;-64
2022/09/29 13:43:05;;;;;;;;;;;16.30;99.90;;;;;;5073614;28;19973;-64
2022/09/29 13:45:37;;;;;;;;;;;16.30;99.90;;;;;;5072964;28;19989;-64
2022/09/29 13:48:20;;;;;;;;;;;16.40;99.90;;;;;;5073284;28;19970;-64
2022/09/29 13:50:48;;;;;;;;;;;16.40;99.90;;;;;;5072562;28;20337;-64
2022/09/29 13:53:27;;;;;;;;;;;16.30;99.90;;;;;;5073580;28;20451;-64
2022/09/29 13:55:55;;;;;;;;;;;16.40;99.90;;;;;;5072596;28;20006;-63
2022/09/29 13:58:25;;;;;;;;;;;16.50;99.90;;;;;;5072868;28;20498;-63
2022/09/29 14:00:53;;;;;;;;;;;16.40;99.90;;;;;;5073056;28;19966;-64
2022/09/29 14:03:27;;;;;;;;;;;16.40;99.90;;;;;;5073211;28;20431;-64
2022/09/29 14:05:56;;;;;;;;;;;16.40;99.90;;;;;;5072803;28;20380;-64
2022/09/29 14:08:27;;;;;;;;;;;16.50;99.90;;;;;;5072687;28;20448;-64
2022/09/29 14:11:03;;;;;;;;;;;16.70;99.90;;;;;;5072275;28;20331;-64
2022/09/29 14:13:39;;;;;;;;;;;16.60;99.90;;;;;;5073039;28;19967;-64
2022/09/29 14:16:25;;;;;;;;;;;16.40;99.90;;;;;;5072833;28;20068;-64
2022/09/29 14:18:54;;;;;;;;;;;16.20;99.90;;;;;;5059129;28;19977;-64
2022/09/29 14:21:41;;;;;;;;;;;15.90;99.90;;;;;;5072630;28;19973;-64
2022/09/29 14:24:23;;;;;;;;;;;15.60;99.90;;;;;;5072966;28;19974;-64
2022/09/29 14:27:13;;;;;;;;;;;15.40;99.90;;;;;;5072203;28;19970;-65
2022/09/29 14:29:44;;;;;;;;;;;15.40;99.90;;;;;;5072091;28;19992;-63
2022/09/29 14:32:14;;;;;;;;;;;15.20;99.90;;;;;;5072591;28;20427;-64
2022/09/29 14:34:42;;;;;;;;;;;15.30;99.90;;;;;;5072521;28;20346;-64
2022/09/29 14:37:14;;;;;;;;;;;15.20;99.90;;;;;;5075685;28;20202;-64
2022/09/29 14:40:26;;;;;;;;;;;15.20;99.90;;;;;;5074588;28;20329;-64
2022/09/29 14:42:30;;;;;;;;;;;15.20;99.90;;;;;;5072125;28;20009;-63
2022/09/29 14:53:31;;;;;;;;;;;16.80;99.90;;;;;;5072577;28;20353;-64
2022/09/29 14:56:03;;;;;;;;;;;17.10;99.90;;;;;;5071887;28;20062;-64
2022/09/29 14:58:40;;;;;;;;;;;16.90;99.90;;;;;;5071909;28;19966;-64